Time;durP1;ratioP1;P1;durP2;ratioP2;P2;SDS_P1;SDS_P2;PMS_P1;PMS_P2;Temp;Humidity;BMP_temperature;BMP_pressure;BME280_temperature;BME280_humidity;BME280_pressure;Samples;Min_cycle;Max_cycle;Signal;HPM_P1;HPM_P2
2022/07/24 00:01:52;;;;;;;6.32;4.80;;;;;;;;;;5060386;28;20215;-67
2022/07/24 00:04:17;;;;;;;7.03;4.68;;;;;;;;;;5061673;28;20367;-68
2022/07/24 00:06:42;;;;;;;5.25;4.75;;;;;;;;;;5056432;28;20207;-67
2022/07/24 00:09:08;;;;;;;5.95;4.57;;;;;;;;;;5051178;28;20268;-67
2022/07/24 00:11:34;;;;;;;5.25;4.28;;;;;;;;;;5049745;28;20236;-67
2022/07/24 00:13:59;;;;;;;4.60;3.80;;;;;;;;;;5050042;28;20193;-67
2022/07/24 00:16:25;;;;;;;4.32;3.92;;;;;;;;;;5048486;28;20235;-67
2022/07/24 00:18:50;;;;;;;5.68;4.32;;;;;;;;;;5048227;28;20495;-67
2022/07/24 00:21:16;;;;;;;7.55;4.63;;;;;;;;;;5056712;28;20271;-67
2022/07/24 00:23:42;;;;;;;4.78;4.22;;;;;;;;;;5058439;28;20248;-68
2022/07/24 00:26:08;;;;;;;4.63;4.20;;;;;;;;;;5053702;28;20201;-67
2022/07/24 00:28:34;;;;;;;6.60;4.20;;;;;;;;;;5054548;28;20281;-68
2022/07/24 00:30:59;;;;;;;5.30;4.55;;;;;;;;;;5046525;28;20204;-67
2022/07/24 00:33:24;;;;;;;5.15;4.63;;;;;;;;;;5049480;28;20189;-67
2022/07/24 00:35:50;;;;;;;5.93;4.10;;;;;;;;;;5051592;28;20181;-68
2022/07/24 00:38:15;;;;;;;5.10;4.60;;;;;;;;;;5063922;28;20230;-68
2022/07/24 00:40:41;;;;;;;6.25;5.13;;;;;;;;;;5051587;28;20363;-67
2022/07/24 00:43:06;;;;;;;5.38;4.55;;;;;;;;;;5063339;28;20192;-68
2022/07/24 00:45:31;;;;;;;6.32;4.68;;;;;;;;;;5049031;28;20509;-68
2022/07/24 00:47:57;;;;;;;6.22;4.88;;;;;;;;;;5047359;28;20199;-68
2022/07/24 00:50:23;;;;;;;6.70;4.68;;;;;;;;;;5052345;28;20200;-68
2022/07/24 00:52:49;;;;;;;4.68;4.28;;;;;;;;;;5055422;28;20182;-68
2022/07/24 00:55:15;;;;;;;5.38;4.68;;;;;;;;;;5060247;28;20181;-68
2022/07/24 00:57:43;;;;;;;7.00;4.40;;;;;;;;;;5047080;28;20212;-68
2022/07/24 01:00:09;;;;;;;5.80;4.35;;;;;;;;;;5062409;28;20183;-68
2022/07/24 01:02:38;;;;;;;5.78;4.57;;;;;;;;;;5063323;28;20779;-68
2022/07/24 01:05:04;;;;;;;7.15;4.75;;;;;;;;;;5049619;28;20207;-68
2022/07/24 01:07:29;;;;;;;6.20;5.07;;;;;;;;;;5064977;28;20212;-68
2022/07/24 01:09:55;;;;;;;5.00;4.50;;;;;;;;;;5047202;28;20177;-68
2022/07/24 01:12:20;;;;;;;4.70;4.18;;;;;;;;;;5060275;28;20181;-68
2022/07/24 01:14:46;;;;;;;5.20;4.55;;;;;;;;;;5047476;28;20220;-67
2022/07/24 01:17:11;;;;;;;7.45;4.20;;;;;;;;;;5047455;28;20637;-68
2022/07/24 01:19:37;;;;;;;4.20;3.85;;;;;;;;;;5060072;28;20188;-68
2022/07/24 01:22:03;;;;;;;5.13;3.90;;;;;;;;;;5066864;28;20321;-68
2022/07/24 01:24:28;;;;;;;4.88;4.30;;;;;;;;;;5060394;28;20216;-68
2022/07/24 01:26:53;;;;;;;6.70;4.57;;;;;;;;;;5050313;28;20224;-68
2022/07/24 01:29:19;;;;;;;4.90;4.22;;;;;;;;;;5046419;28;20264;-68
2022/07/24 01:31:44;;;;;;;6.50;4.43;;;;;;;;;;5058639;28;20212;-68
2022/07/24 01:34:09;;;;;;;5.38;4.28;;;;;;;;;;5054281;28;20185;-68
2022/07/24 01:36:35;;;;;;;4.57;4.15;;;;;;;;;;5051092;28;20177;-68
2022/07/24 01:39:00;;;;;;;6.43;4.38;;;;;;;;;;5056664;28;20184;-68
2022/07/24 01:41:26;;;;;;;6.28;4.70;;;;;;;;;;5067877;28;20556;-68
2022/07/24 01:43:51;;;;;;;7.35;4.88;;;;;;;;;;5049896;28;20181;-68
2022/07/24 01:46:16;;;;;;;7.28;4.32;;;;;;;;;;5052817;28;20213;-68
2022/07/24 01:48:43;;;;;;;5.00;4.20;;;;;;;;;;5054066;28;20414;-68
2022/07/24 01:51:09;;;;;;;5.80;4.50;;;;;;;;;;5062261;28;20545;-68
2022/07/24 01:53:35;;;;;;;8.07;4.47;;;;;;;;;;5061844;28;20180;-67
2022/07/24 01:56:01;;;;;;;9.43;4.60;;;;;;;;;;5058120;28;20181;-67
2022/07/24 01:58:26;;;;;;;4.65;4.10;;;;;;;;;;5067427;28;20191;-67
2022/07/24 02:00:52;;;;;;;5.80;4.30;;;;;;;;;;5058502;28;20235;-67
2022/07/24 02:03:19;;;;;;;6.78;4.70;;;;;;;;;;5068012;28;20257;-67
2022/07/24 02:05:44;;;;;;;6.70;4.30;;;;;;;;;;5063713;28;20197;-68
2022/07/24 02:08:09;;;;;;;6.82;4.30;;;;;;;;;;5053413;28;20271;-68
2022/07/24 02:10:35;;;;;;;4.65;4.13;;;;;;;;;;5053480;28;20554;-67
2022/07/24 02:13:01;;;;;;;5.95;4.18;;;;;;;;;;5057790;28;21686;-66
2022/07/24 02:15:26;;;;;;;4.90;4.40;;;;;;;;;;5054636;28;20246;-67
2022/07/24 02:17:54;;;;;;;5.13;4.63;;;;;;;;;;5057746;28;20251;-67
2022/07/24 02:20:20;;;;;;;7.88;4.55;;;;;;;;;;5061791;28;20192;-68
2022/07/24 02:22:45;;;;;;;7.35;4.57;;;;;;;;;;5062732;28;20185;-67
2022/07/24 02:25:12;;;;;;;4.82;3.97;;;;;;;;;;5028830;28;20288;-67
2022/07/24 02:27:38;;;;;;;5.55;4.40;;;;;;;;;;5042176;28;20208;-67
2022/07/24 02:30:05;;;;;;;5.60;4.20;;;;;;;;;;5034723;28;20178;-67
2022/07/24 02:32:31;;;;;;;5.00;4.20;;;;;;;;;;5043304;28;20321;-66
2022/07/24 02:34:56;;;;;;;5.00;4.13;;;;;;;;;;5042215;28;20639;-67
2022/07/24 02:37:21;;;;;;;11.35;5.40;;;;;;;;;;5033969;28;20481;-67
2022/07/24 02:39:47;;;;;;;6.25;4.63;;;;;;;;;;5030118;28;20190;-67
2022/07/24 02:42:12;;;;;;;7.55;4.65;;;;;;;;;;5029128;28;20189;-67
2022/07/24 02:44:37;;;;;;;7.57;4.75;;;;;;;;;;5044603;28;20196;-67
2022/07/24 02:47:03;;;;;;;6.72;4.88;;;;;;;;;;5030606;28;20190;-67
2022/07/24 02:49:28;;;;;;;6.22;4.70;;;;;;;;;;5036861;28;20185;-67
2022/07/24 02:51:54;;;;;;;7.10;5.00;;;;;;;;;;5042532;28;20174;-67
2022/07/24 02:54:19;;;;;;;5.35;4.45;;;;;;;;;;5041150;28;20695;-67
2022/07/24 02:56:44;;;;;;;5.80;4.63;;;;;;;;;;5032886;28;20285;-67
2022/07/24 02:59:10;;;;;;;9.95;4.82;;;;;;;;;;5036827;28;20204;-67
2022/07/24 03:01:35;;;;;;;5.63;5.03;;;;;;;;;;5048382;28;20177;-67
2022/07/24 03:04:00;;;;;;;7.00;4.82;;;;;;;;;;5036104;28;20200;-67
2022/07/24 03:06:26;;;;;;;7.72;5.05;;;;;;;;;;5041127;28;20201;-67
2022/07/24 03:08:51;;;;;;;8.15;4.93;;;;;;;;;;5031826;28;20186;-67
2022/07/24 03:11:16;;;;;;;7.30;4.80;;;;;;;;;;5037441;28;20716;-67
2022/07/24 03:13:42;;;;;;;7.85;5.47;;;;;;;;;;5033396;28;20186;-67
2022/07/24 03:16:07;;;;;;;7.03;5.20;;;;;;;;;;5029191;28;20209;-67
2022/07/24 03:18:32;;;;;;;7.97;5.32;;;;;;;;;;5034913;28;20182;-67
2022/07/24 03:20:58;;;;;;;7.82;5.30;;;;;;;;;;5038049;28;20593;-67
2022/07/24 03:23:23;;;;;;;5.45;4.93;;;;;;;;;;5042450;28;20240;-67
2022/07/24 03:25:49;;;;;;;6.10;4.80;;;;;;;;;;5049000;28;20235;-67
2022/07/24 03:28:14;;;;;;;6.10;5.43;;;;;;;;;;5048019;28;20297;-67
2022/07/24 03:30:40;;;;;;;7.65;5.60;;;;;;;;;;5066744;28;20180;-67
2022/07/24 03:33:05;;;;;;;10.27;5.18;;;;;;;;;;5056680;28;20551;-67
2022/07/24 03:35:31;;;;;;;7.57;4.97;;;;;;;;;;5064620;28;20238;-67
2022/07/24 03:37:57;;;;;;;7.55;5.18;;;;;;;;;;5059517;28;20637;-67
2022/07/24 03:40:22;;;;;;;5.38;4.88;;;;;;;;;;5062769;28;20249;-67
2022/07/24 03:42:48;;;;;;;7.53;5.35;;;;;;;;;;5068614;28;20184;-67
2022/07/24 03:45:13;;;;;;;7.63;5.25;;;;;;;;;;5057114;28;20204;-68
2022/07/24 03:47:38;;;;;;;8.40;5.60;;;;;;;;;;5059586;28;20219;-67
2022/07/24 03:50:04;;;;;;;6.70;5.40;;;;;;;;;;5059901;28;20209;-67
2022/07/24 03:52:29;;;;;;;8.15;5.68;;;;;;;;;;5057359;28;20192;-67
2022/07/24 03:54:55;;;;;;;6.63;5.35;;;;;;;;;;5062897;28;20222;-67
2022/07/24 03:57:21;;;;;;;7.60;5.43;;;;;;;;;;5067104;28;20201;-67
2022/07/24 03:59:47;;;;;;;8.88;5.05;;;;;;;;;;5055585;28;20260;-67
2022/07/24 04:02:12;;;;;;;7.90;5.45;;;;;;;;;;5050288;28;20602;-67
2022/07/24 04:04:38;;;;;;;7.32;5.45;;;;;;;;;;5066016;28;20310;-68
2022/07/24 04:07:03;;;;;;;8.20;5.97;;;;;;;;;;5053179;28;20489;-67
2022/07/24 04:09:28;;;;;;;7.38;5.53;;;;;;;;;;5056409;28;20212;-68
2022/07/24 04:11:54;;;;;;;6.95;5.40;;;;;;;;;;5066307;28;20188;-67
2022/07/24 04:14:19;;;;;;;8.20;5.60;;;;;;;;;;5056167;28;20670;-67
2022/07/24 04:16:44;;;;;;;7.47;5.50;;;;;;;;;;5052324;28;20188;-67
2022/07/24 04:19:10;;;;;;;8.05;6.00;;;;;;;;;;5058445;28;20185;-67
2022/07/24 04:21:35;;;;;;;6.28;5.43;;;;;;;;;;5061423;28;20177;-67
2022/07/24 04:24:01;;;;;;;8.02;5.63;;;;;;;;;;5051928;28;20304;-67
2022/07/24 04:26:26;;;;;;;9.15;6.00;;;;;;;;;;5046607;28;20567;-67
2022/07/24 04:28:52;;;;;;;9.65;5.45;;;;;;;;;;5060612;28;20213;-67
2022/07/24 04:31:17;;;;;;;8.65;6.07;;;;;;;;;;5047024;28;20209;-68
2022/07/24 04:33:42;;;;;;;9.85;5.70;;;;;;;;;;5063708;28;20192;-67
2022/07/24 04:36:08;;;;;;;8.57;5.57;;;;;;;;;;5067850;28;20211;-67
2022/07/24 04:38:34;;;;;;;10.98;6.28;;;;;;;;;;5065498;28;20204;-67
2022/07/24 04:41:00;;;;;;;8.15;6.15;;;;;;;;;;5057173;28;20745;-67
2022/07/24 04:43:25;;;;;;;8.40;6.15;;;;;;;;;;5049966;28;20281;-67
2022/07/24 04:45:51;;;;;;;7.85;5.85;;;;;;;;;;5060730;28;20268;-67
2022/07/24 04:48:16;;;;;;;9.13;6.22;;;;;;;;;;5063212;28;20188;-67
2022/07/24 04:50:41;;;;;;;8.38;6.35;;;;;;;;;;5058749;28;20186;-67
2022/07/24 04:53:07;;;;;;;12.60;6.53;;;;;;;;;;5048795;28;20704;-67
2022/07/24 04:55:32;;;;;;;7.88;6.82;;;;;;;;;;5053873;28;20181;-67
2022/07/24 04:57:57;;;;;;;8.63;6.22;;;;;;;;;;5060341;28;20268;-66
2022/07/24 05:00:23;;;;;;;8.23;7.00;;;;;;;;;;5056615;28;20546;-67
2022/07/24 05:02:48;;;;;;;9.15;6.97;;;;;;;;;;5058332;28;20180;-66
2022/07/24 05:05:13;;;;;;;9.30;7.00;;;;;;;;;;5056451;28;20181;-65
2022/07/24 05:07:39;;;;;;;11.80;7.28;;;;;;;;;;5068395;28;20665;-66
2022/07/24 05:10:05;;;;;;;10.35;6.93;;;;;;;;;;5069087;28;20191;-65
2022/07/24 05:12:31;;;;;;;8.27;6.78;;;;;;;;;;5051092;28;20181;-66
2022/07/24 05:14:56;;;;;;;9.85;6.57;;;;;;;;;;5070207;28;20180;-65
2022/07/24 05:17:21;;;;;;;9.32;6.93;;;;;;;;;;5058177;28;20185;-65
2022/07/24 05:19:47;;;;;;;13.88;7.60;;;;;;;;;;5059687;28;20280;-65
2022/07/24 05:22:12;;;;;;;11.25;7.18;;;;;;;;;;5051227;28;20192;-65
2022/07/24 05:24:37;;;;;;;9.68;7.60;;;;;;;;;;5049466;28;20240;-66
2022/07/24 05:27:03;;;;;;;9.10;6.88;;;;;;;;;;5067982;28;20303;-65
2022/07/24 05:29:28;;;;;;;8.75;6.30;;;;;;;;;;5071336;28;20188;-65
2022/07/24 05:31:54;;;;;;;12.02;7.90;;;;;;;;;;5054769;28;20197;-66
2022/07/24 05:34:23;;;;;;;12.80;9.13;;;;;;;;;;5058206;28;20184;-65
2022/07/24 05:36:49;;;;;;;15.57;8.32;;;;;;;;;;5064494;28;20680;-65
2022/07/24 05:39:14;;;;;;;13.50;9.07;;;;;;;;;;5068902;28;20190;-65
2022/07/24 05:41:40;;;;;;;12.07;8.50;;;;;;;;;;5063181;28;20627;-64
2022/07/24 05:44:05;;;;;;;11.75;7.82;;;;;;;;;;5056482;28;20176;-64
2022/07/24 05:46:31;;;;;;;16.00;9.15;;;;;;;;;;5069798;28;20243;-64
2022/07/24 05:48:56;;;;;;;12.63;8.73;;;;;;;;;;5071228;28;20645;-65
2022/07/24 05:51:21;;;;;;;13.75;8.15;;;;;;;;;;5065861;28;20548;-64
2022/07/24 05:53:47;;;;;;;18.00;9.02;;;;;;;;;;5054160;28;20620;-64
2022/07/24 05:56:12;;;;;;;13.00;9.02;;;;;;;;;;5050273;28;20186;-64
2022/07/24 05:58:38;;;;;;;12.68;9.10;;;;;;;;;;5053619;28;20215;-64
2022/07/24 06:01:03;;;;;;;13.30;9.07;;;;;;;;;;5070082;28;20268;-64
2022/07/24 06:03:28;;;;;;;13.57;9.60;;;;;;;;;;5054424;28;20269;-64
2022/07/24 06:05:54;;;;;;;14.85;9.88;;;;;;;;;;5063018;28;20216;-65
2022/07/24 06:08:19;;;;;;;11.55;9.32;;;;;;;;;;5060073;28;20208;-64
2022/07/24 06:10:45;;;;;;;11.68;9.77;;;;;;;;;;5050003;28;20189;-64
2022/07/24 06:13:10;;;;;;;15.15;9.88;;;;;;;;;;5058791;28;20185;-64
2022/07/24 06:15:36;;;;;;;15.23;10.20;;;;;;;;;;5056678;28;20256;-64
2022/07/24 06:18:01;;;;;;;14.38;10.48;;;;;;;;;;5058396;28;20636;-64
2022/07/24 06:20:27;;;;;;;19.85;11.25;;;;;;;;;;5060835;28;20197;-64
2022/07/24 06:22:52;;;;;;;12.40;9.65;;;;;;;;;;5056763;28;20211;-64
2022/07/24 06:25:18;;;;;;;15.57;10.50;;;;;;;;;;5055280;28;20185;-64
2022/07/24 06:27:46;;;;;;;14.95;10.25;;;;;;;;;;5054728;28;20213;-64
2022/07/24 06:30:21;;;;;;;15.23;10.95;;;;;;;;;;5059147;28;20265;-64
2022/07/24 06:32:46;;;;;;;14.82;10.23;;;;;;;;;;5060855;28;20231;-65
2022/07/24 06:35:12;;;;;;;15.80;10.85;;;;;;;;;;5060766;28;20503;-64
2022/07/24 06:37:38;;;;;;;12.98;10.88;;;;;;;;;;5066572;28;20189;-65
2022/07/24 06:40:04;;;;;;;16.88;11.27;;;;;;;;;;5051309;28;20174;-65
2022/07/24 06:42:30;;;;;;;14.60;10.88;;;;;;;;;;5058626;28;20576;-65
2022/07/24 06:44:55;;;;;;;15.23;10.63;;;;;;;;;;5052849;28;20188;-66
2022/07/24 06:47:21;;;;;;;17.10;11.50;;;;;;;;;;5056444;28;20196;-63
2022/07/24 06:49:46;;;;;;;15.20;11.10;;;;;;;;;;5059081;28;20189;-64
2022/07/24 06:52:11;;;;;;;16.02;11.10;;;;;;;;;;5068630;28;20675;-65
2022/07/24 06:54:37;;;;;;;13.88;12.00;;;;;;;;;;5055500;28;20223;-65
2022/07/24 06:57:02;;;;;;;14.25;11.30;;;;;;;;;;5049226;28;20512;-64
2022/07/24 06:59:27;;;;;;;16.35;11.25;;;;;;;;;;5063270;28;20554;-64
2022/07/24 07:01:53;;;;;;;15.85;12.00;;;;;;;;;;5049418;28;20200;-64
2022/07/24 07:04:18;;;;;;;12.88;10.68;;;;;;;;;;5048970;28;20177;-65
2022/07/24 07:06:44;;;;;;;18.75;12.45;;;;;;;;;;5061883;28;20217;-65
2022/07/24 07:09:09;;;;;;;16.73;12.15;;;;;;;;;;5052669;28;20512;-66
2022/07/24 07:11:34;;;;;;;22.02;12.80;;;;;;;;;;5056497;28;20185;-65
2022/07/24 07:14:00;;;;;;;15.40;13.15;;;;;;;;;;5059790;28;20172;-65
2022/07/24 07:16:25;;;;;;;20.13;12.65;;;;;;;;;;5062279;28;20181;-65
2022/07/24 07:18:50;;;;;;;18.30;13.45;;;;;;;;;;5060460;28;20296;-66
2022/07/24 07:21:16;;;;;;;17.35;12.55;;;;;;;;;;5063152;28;20216;-64
2022/07/24 07:23:41;;;;;;;19.85;12.73;;;;;;;;;;5057790;28;20227;-64
2022/07/24 07:26:06;;;;;;;14.20;11.93;;;;;;;;;;5059036;28;20528;-64
2022/07/24 07:28:32;;;;;;;16.38;12.35;;;;;;;;;;5051014;28;20250;-65
2022/07/24 07:30:57;;;;;;;14.75;12.38;;;;;;;;;;5058062;28;20254;-65
2022/07/24 07:33:23;;;;;;;17.85;13.30;;;;;;;;;;5062343;28;20187;-65
2022/07/24 07:35:49;;;;;;;16.23;12.68;;;;;;;;;;5049023;28;20227;-65
2022/07/24 07:38:14;;;;;;;13.50;12.10;;;;;;;;;;5063924;28;20195;-65
2022/07/24 07:40:40;;;;;;;17.27;13.20;;;;;;;;;;5052438;28;20177;-66
2022/07/24 07:43:05;;;;;;;21.88;13.38;;;;;;;;;;5067720;28;20267;-66
2022/07/24 07:45:31;;;;;;;20.20;14.50;;;;;;;;;;5060242;28;20536;-65
2022/07/24 07:47:56;;;;;;;18.33;14.27;;;;;;;;;;5067586;28;20208;-67
2022/07/24 07:50:22;;;;;;;18.60;13.48;;;;;;;;;;5054138;28;20513;-67
2022/07/24 07:52:47;;;;;;;18.75;14.13;;;;;;;;;;5062239;28;20238;-68
2022/07/24 07:55:12;;;;;;;18.52;14.35;;;;;;;;;;5047303;28;20181;-67
2022/07/24 07:57:41;;;;;;;21.17;15.10;;;;;;;;;;5048504;28;20177;-65
2022/07/24 08:00:07;;;;;;;18.35;13.07;;;;;;;;;;5047539;28;20199;-64
2022/07/24 08:02:32;;;;;;;22.83;14.63;;;;;;;;;;5048319;28;20326;-64
2022/07/24 08:04:58;;;;;;;19.95;15.00;;;;;;;;;;5048877;28;20619;-65
2022/07/24 08:07:23;;;;;;;16.80;14.00;;;;;;;;;;5064838;28;21080;-64
2022/07/24 08:09:48;;;;;;;20.77;14.80;;;;;;;;;;5048174;28;20211;-66
2022/07/24 08:12:14;;;;;;;22.67;15.10;;;;;;;;;;5049485;28;20267;-65
2022/07/24 08:14:39;;;;;;;24.05;17.02;;;;;;;;;;5056198;28;20185;-65
2022/07/24 08:17:04;;;;;;;20.95;14.60;;;;;;;;;;5061045;28;20195;-66
2022/07/24 08:19:30;;;;;;;18.42;15.13;;;;;;;;;;5059990;28;20189;-66
2022/07/24 08:21:55;;;;;;;22.77;17.15;;;;;;;;;;5066856;28;20218;-65
2022/07/24 08:24:21;;;;;;;20.05;15.93;;;;;;;;;;5051430;28;20229;-65
2022/07/24 08:26:47;;;;;;;23.15;16.65;;;;;;;;;;5062931;28;20652;-64
2022/07/24 08:29:13;;;;;;;17.73;15.27;;;;;;;;;;5060875;28;20177;-67
2022/07/24 08:31:38;;;;;;;22.65;14.32;;;;;;;;;;5058659;28;20238;-64
2022/07/24 08:34:04;;;;;;;21.17;14.93;;;;;;;;;;5051636;28;20177;-64
2022/07/24 08:36:29;;;;;;;18.17;13.65;;;;;;;;;;5063788;28;20184;-64
2022/07/24 08:38:54;;;;;;;17.17;13.32;;;;;;;;;;5054434;28;20205;-64
2022/07/24 08:41:21;;;;;;;20.90;14.27;;;;;;;;;;5065846;28;20215;-64
2022/07/24 08:43:46;;;;;;;19.60;13.65;;;;;;;;;;5052962;28;20264;-66
2022/07/24 08:46:14;;;;;;;16.80;12.35;;;;;;;;;;5050426;28;20292;-66
2022/07/24 08:48:44;;;;;;;14.65;11.38;;;;;;;;;;5046432;28;20287;-65
2022/07/24 08:51:09;;;;;;;17.52;12.23;;;;;;;;;;5047258;28;20715;-65
2022/07/24 08:53:35;;;;;;;14.40;11.23;;;;;;;;;;5061827;28;20489;-65
2022/07/24 08:56:00;;;;;;;12.93;9.57;;;;;;;;;;5061349;28;20193;-64
2022/07/24 08:58:25;;;;;;;14.00;9.65;;;;;;;;;;5048194;28;20182;-65
2022/07/24 09:00:51;;;;;;;21.90;10.70;;;;;;;;;;5059859;28;20265;-65
2022/07/24 09:03:16;;;;;;;14.27;8.75;;;;;;;;;;5047418;28;20201;-66
2022/07/24 09:05:56;;;;;;;11.82;7.93;;;;;;;;;;5065265;28;20238;-65
2022/07/24 09:08:22;;;;;;;10.45;6.43;;;;;;;;;;5066049;28;20177;-65
2022/07/24 09:10:56;;;;;;;7.57;5.32;;;;;;;;;;5062034;28;20200;-65
2022/07/24 09:13:25;;;;;;;9.95;5.93;;;;;;;;;;5052189;28;20191;-67
2022/07/24 09:15:50;;;;;;;10.32;6.57;;;;;;;;;;5050735;28;20189;-65
2022/07/24 09:18:32;;;;;;;6.22;5.35;;;;;;;;;;5056092;28;20174;-65
2022/07/24 09:21:00;;;;;;;6.18;4.97;;;;;;;;;;5055564;28;20196;-65
2022/07/24 09:23:25;;;;;;;7.68;5.40;;;;;;;;;;5059100;28;20399;-65
2022/07/24 09:25:53;;;;;;;7.40;4.93;;;;;;;;;;5051037;28;20711;-65
2022/07/24 09:28:19;;;;;;;5.43;4.22;;;;;;;;;;5049086;28;20189;-67
2022/07/24 09:30:47;;;;;;;8.77;4.60;;;;;;;;;;5043882;28;20221;-65
2022/07/24 09:33:13;;;;;;;6.40;4.07;;;;;;;;;;5050368;28;20204;-65
2022/07/24 09:35:49;;;;;;;5.20;3.85;;;;;;;;;;5057468;28;20243;-66
2022/07/24 09:38:17;;;;;;;7.35;4.18;;;;;;;;;;5055569;28;20184;-67
2022/07/24 09:40:45;;;;;;;4.68;3.70;;;;;;;;;;5049716;28;20185;-65
2022/07/24 09:43:17;;;;;;;4.35;3.90;;;;;;;;;;5045745;28;20597;-67
2022/07/24 09:45:59;;;;;;;4.97;3.13;;;;;;;;;;5055501;28;20189;-66
2022/07/24 09:48:31;;;;;;;4.07;2.80;;;;;;;;;;5046790;28;20185;-65
2022/07/24 09:50:59;;;;;;;6.10;2.85;;;;;;;;;;5045224;28;20180;-66
2022/07/24 09:53:27;;;;;;;4.50;3.38;;;;;;;;;;5053961;28;20609;-65
2022/07/24 09:56:10;;;;;;;2.60;2.40;;;;;;;;;;5054341;28;20185;-65
2022/07/24 09:58:38;;;;;;;2.83;2.50;;;;;;;;;;5056622;28;20677;-65
2022/07/24 10:01:06;;;;;;;7.43;2.33;;;;;;;;;;5058674;28;20697;-65
2022/07/24 10:03:38;;;;;;;5.03;2.88;;;;;;;;;;5051430;28;20201;-65
2022/07/24 10:06:05;;;;;;;4.25;2.70;;;;;;;;;;5047724;28;20182;-65
2022/07/24 10:08:33;;;;;;;3.40;2.65;;;;;;;;;;5055298;28;20181;-65
2022/07/24 10:10:59;;;;;;;4.90;2.40;;;;;;;;;;5054300;28;20177;-65
2022/07/24 10:13:27;;;;;;;4.05;2.28;;;;;;;;;;5053377;28;20236;-65
2022/07/24 10:16:13;;;;;;;3.67;2.30;;;;;;;;;;5049469;28;20597;-66
2022/07/24 10:19:14;;;;;;;2.95;2.05;;;;;;;;;;5055655;28;20184;-64
2022/07/24 10:21:53;;;;;;;2.72;2.22;;;;;;;;;;5034467;28;20201;-68
2022/07/24 10:24:36;;;;;;;8.25;2.15;;;;;;;;;;5058111;28;20224;-65
2022/07/24 10:27:04;;;;;;;2.38;2.17;;;;;;;;;;5052139;28;20204;-65
2022/07/24 10:29:33;;;;;;;4.57;2.28;;;;;;;;;;5054723;28;20175;-64
2022/07/24 10:31:59;;;;;;;3.58;2.15;;;;;;;;;;5057421;28;20344;-63
2022/07/24 10:34:43;;;;;;;2.60;2.20;;;;;;;;;;5048147;28;20581;-66
2022/07/24 10:37:27;;;;;;;2.20;2.03;;;;;;;;;;5050013;28;20193;-65
2022/07/24 10:40:11;;;;;;;2.38;2.17;;;;;;;;;;5057966;28;20203;-64
2022/07/24 10:43:13;;;;;;;2.33;2.13;;;;;;;;;;5061982;28;20547;-64
2022/07/24 10:46:00;;;;;;;3.70;2.50;;;;;;;;;;5061032;28;20193;-64
2022/07/24 10:48:29;;;;;;;4.20;3.05;;;;;;;;;;5051223;28;20212;-64
2022/07/24 10:50:58;;;;;;;4.50;2.70;;;;;;;;;;5047552;28;20200;-64
2022/07/24 10:53:25;;;;;;;8.40;2.00;;;;;;;;;;5053843;28;20327;-64
2022/07/24 10:55:51;;;;;;;2.47;2.28;;;;;;;;;;5050686;28;20693;-66
2022/07/24 10:58:16;;;;;;;3.28;1.90;;;;;;;;;;5050860;28;20256;-64
2022/07/24 11:00:50;;;;;;;2.25;2.08;;;;;;;;;;5048694;28;20181;-64
2022/07/24 11:03:24;;;;;;;2.42;1.90;;;;;;;;;;5048010;28;20186;-64
2022/07/24 11:06:11;;;;;;;2.40;2.20;;;;;;;;;;5051287;28;20192;-64
2022/07/24 11:08:58;;;;;;;3.33;2.33;;;;;;;;;;5050968;28;20188;-64
2022/07/24 11:11:25;;;;;;;2.00;1.73;;;;;;;;;;5048931;28;20996;-65
2022/07/24 11:13:53;;;;;;;1.65;1.45;;;;;;;;;;5050255;28;20182;-67
2022/07/24 11:16:21;;;;;;;1.98;1.88;;;;;;;;;;5048185;28;20872;-65
2022/07/24 11:18:49;;;;;;;2.20;1.98;;;;;;;;;;5053560;28;20177;-64
2022/07/24 11:21:37;;;;;;;2.53;1.90;;;;;;;;;;5052825;28;20195;-66
2022/07/24 11:24:15;;;;;;;2.53;1.83;;;;;;;;;;5047259;28;20224;-65
2022/07/24 11:26:47;;;;;;;2.97;2.10;;;;;;;;;;5054260;28;20208;-64
2022/07/24 11:29:14;;;;;;;2.00;1.83;;;;;;;;;;5054670;28;20192;-64
2022/07/24 11:31:41;;;;;;;2.65;1.88;;;;;;;;;;5052626;28;20208;-64
2022/07/24 11:34:09;;;;;;;2.08;1.73;;;;;;;;;;5056199;28;20271;-65
2022/07/24 11:36:35;;;;;;;2.75;2.25;;;;;;;;;;5064067;28;20176;-65
2022/07/24 11:39:03;;;;;;;2.13;2.00;;;;;;;;;;5056354;28;20414;-65
2022/07/24 11:41:28;;;;;;;3.72;1.90;;;;;;;;;;5051388;28;20186;-66
2022/07/24 11:43:53;;;;;;;2.22;2.03;;;;;;;;;;5050584;28;20179;-67
2022/07/24 11:46:35;;;;;;;2.28;2.08;;;;;;;;;;5059679;28;20229;-65
2022/07/24 11:49:03;;;;;;;2.95;2.05;;;;;;;;;;5048670;28;20344;-64
2022/07/24 11:51:28;;;;;;;2.17;1.85;;;;;;;;;;5066365;28;20215;-65
2022/07/24 11:53:55;;;;;;;3.72;1.90;;;;;;;;;;5058488;28;20732;-64
2022/07/24 11:56:20;;;;;;;3.05;1.88;;;;;;;;;;5054238;28;20177;-65
2022/07/24 11:58:46;;;;;;;2.20;2.00;;;;;;;;;;5059401;28;20659;-66
2022/07/24 12:01:22;;;;;;;4.85;2.15;;;;;;;;;;5057401;28;20181;-65
2022/07/24 12:03:52;;;;;;;3.03;2.17;;;;;;;;;;5055277;28;20522;-64
2022/07/24 12:06:19;;;;;;;2.60;1.80;;;;;;;;;;5060175;28;20674;-65
2022/07/24 12:08:44;;;;;;;3.55;1.95;;;;;;;;;;4351666;28;10000559;-65
2022/07/24 12:11:10;;;;;;;3.45;1.90;;;;;;;;;;5043437;28;20185;-64
2022/07/24 12:13:41;;;;;;;2.42;2.20;;;;;;;;;;5061236;28;20180;-65
2022/07/24 12:16:07;;;;;;;2.28;2.03;;;;;;;;;;5046409;28;20547;-68
2022/07/24 12:18:33;;;;;;;2.35;2.00;;;;;;;;;;5060097;28;20287;-67
2022/07/24 12:21:00;;;;;;;4.60;2.20;;;;;;;;;;5063285;28;20714;-64
2022/07/24 12:23:25;;;;;;;2.13;1.92;;;;;;;;;;5059329;28;20236;-66
2022/07/24 12:25:51;;;;;;;2.38;2.17;;;;;;;;;;5041291;28;20188;-68
2022/07/24 12:28:18;;;;;;;2.47;2.20;;;;;;;;;;5048894;28;21058;-65
2022/07/24 12:30:52;;;;;;;2.63;2.05;;;;;;;;;;5047621;28;20272;-64
2022/07/24 12:33:24;;;;;;;3.10;2.10;;;;;;;;;;5046000;28;20194;-65
2022/07/24 12:36:11;;;;;;;2.28;2.08;;;;;;;;;;5045794;28;20224;-66
2022/07/24 12:38:39;;;;;;;4.70;2.20;;;;;;;;;;5057945;28;20207;-65
2022/07/24 12:41:13;;;;;;;3.50;2.10;;;;;;;;;;5049390;28;20272;-65
2022/07/24 12:43:55;;;;;;;2.22;2.08;;;;;;;;;;5052000;28;20260;-66
2022/07/24 12:46:36;;;;;;;4.15;2.03;;;;;;;;;;5043367;28;20680;-66
2022/07/24 12:49:04;;;;;;;3.35;1.88;;;;;;;;;;5050646;28;20177;-67
2022/07/24 12:51:50;;;;;;;3.28;2.17;;;;;;;;;;5047363;28;21743;-66
2022/07/24 12:54:27;;;;;;;2.33;1.83;;;;;;;;;;5056495;28;20185;-65
2022/07/24 12:57:01;;;;;;;2.95;2.03;;;;;;;;;;5049358;28;20189;-67
2022/07/24 12:59:30;;;;;;;2.58;2.38;;;;;;;;;;5053871;28;20189;-65
2022/07/24 13:01:58;;;;;;;2.58;1.98;;;;;;;;;;5052333;28;20188;-68
2022/07/24 13:04:25;;;;;;;2.53;1.95;;;;;;;;;;5051872;28;20265;-65
2022/07/24 13:06:53;;;;;;;3.97;2.40;;;;;;;;;;5052901;28;20663;-66
2022/07/24 13:09:20;;;;;;;3.33;2.03;;;;;;;;;;5049305;28;20199;-66
2022/07/24 13:11:48;;;;;;;3.35;2.20;;;;;;;;;;5049781;28;20181;-65
2022/07/24 13:14:15;;;;;;;2.58;2.35;;;;;;;;;;5055137;28;20195;-64
2022/07/24 13:16:42;;;;;;;3.95;1.80;;;;;;;;;;5058010;28;20185;-64
2022/07/24 13:19:08;;;;;;;2.38;2.10;;;;;;;;;;5057897;28;20210;-65
2022/07/24 13:21:36;;;;;;;3.20;2.10;;;;;;;;;;5058807;28;20177;-64
2022/07/24 13:24:02;;;;;;;2.17;1.98;;;;;;;;;;5046791;28;20625;-64
2022/07/24 13:26:27;;;;;;;2.72;1.83;;;;;;;;;;5058292;28;20220;-65
2022/07/24 13:28:52;;;;;;;2.13;1.92;;;;;;;;;;5061650;28;20309;-64
2022/07/24 13:31:19;;;;;;;2.05;1.77;;;;;;;;;;5052411;28;20492;-65
2022/07/24 13:33:46;;;;;;;4.00;2.13;;;;;;;;;;5063312;28;20173;-65
2022/07/24 13:36:12;;;;;;;2.45;2.10;;;;;;;;;;5058069;28;20542;-65
2022/07/24 13:38:37;;;;;;;2.08;1.98;;;;;;;;;;5058856;28;20192;-65
2022/07/24 13:41:02;;;;;;;2.20;2.00;;;;;;;;;;5055450;28;20177;-66
2022/07/24 13:43:28;;;;;;;1.75;1.60;;;;;;;;;;5062861;28;20199;-64
2022/07/24 13:45:53;;;;;;;2.72;2.00;;;;;;;;;;5055146;28;20196;-66
2022/07/24 13:48:19;;;;;;;2.92;2.20;;;;;;;;;;5063365;28;20204;-64
2022/07/24 13:50:44;;;;;;;2.08;1.88;;;;;;;;;;5060103;28;20653;-65
2022/07/24 13:53:09;;;;;;;2.10;1.88;;;;;;;;;;5067252;28;20185;-64
2022/07/24 13:55:35;;;;;;;2.35;2.15;;;;;;;;;;5056504;28;20640;-65
2022/07/24 13:58:00;;;;;;;2.20;2.00;;;;;;;;;;5069701;28;20172;-64
2022/07/24 14:00:25;;;;;;;2.00;1.77;;;;;;;;;;5050843;28;20173;-64
2022/07/24 14:02:55;;;;;;;2.33;1.80;;;;;;;;;;5060842;28;20638;-64
2022/07/24 14:05:21;;;;;;;4.65;1.77;;;;;;;;;;5060893;28;20181;-66
2022/07/24 14:07:47;;;;;;;2.40;1.90;;;;;;;;;;5056211;28;20239;-64
2022/07/24 14:10:13;;;;;;;1.90;1.70;;;;;;;;;;5056677;28;20185;-66
2022/07/24 14:12:38;;;;;;;1.75;1.65;;;;;;;;;;5057843;28;20265;-65
2022/07/24 14:15:04;;;;;;;1.67;1.58;;;;;;;;;;5063205;28;20644;-67
2022/07/24 14:17:29;;;;;;;1.75;1.65;;;;;;;;;;5056399;28;20208;-64
2022/07/24 14:19:55;;;;;;;2.03;1.80;;;;;;;;;;5053948;28;20200;-63
2022/07/24 14:22:20;;;;;;;2.35;1.80;;;;;;;;;;5053336;28;20333;-63
2022/07/24 14:24:46;;;;;;;3.65;1.70;;;;;;;;;;5062168;28;20256;-68
2022/07/24 14:27:11;;;;;;;3.90;1.83;;;;;;;;;;5060729;28;20204;-66
2022/07/24 14:29:36;;;;;;;1.65;1.40;;;;;;;;;;5064890;28;20184;-65
2022/07/24 14:32:02;;;;;;;2.67;1.70;;;;;;;;;;5055976;28;20239;-65
2022/07/24 14:34:27;;;;;;;2.35;1.90;;;;;;;;;;5052452;28;20303;-66
2022/07/24 14:36:53;;;;;;;1.80;1.70;;;;;;;;;;5066656;28;20200;-66